Time;durP1;ratioP1;P1;durP2;ratioP2;P2;SDS_P1;SDS_P2;PMS_P1;PMS_P2;Temp;Humidity;BMP_temperature;BMP_pressure;BME280_temperature;BME280_humidity;BME280_pressure;Samples;Min_cycle;Max_cycle;Signal;HPM_P1;HPM_P2
2021/12/18 00:00:13;;;;;;;19.58;10.93;;;;;;;0.62;67.97;95121.53;5130964;27;20393;-69
2021/12/18 00:02:38;;;;;;;21.33;11.00;;;;;;;0.57;68.45;95112.38;5131925;27;20034;-70
2021/12/18 00:05:04;;;;;;;16.55;9.25;;;;;;;0.58;68.04;95116.59;5130706;27;20035;-69
2021/12/18 00:07:31;;;;;;;17.50;9.82;;;;;;;0.54;69.23;95117.63;5113537;28;20031;-69
2021/12/18 00:09:57;;;;;;;18.20;10.30;;;;;;;0.57;69.02;95117.50;5130718;28;20031;-69
2021/12/18 00:12:22;;;;;;;19.25;11.15;;;;;;;0.48;68.59;95122.97;5113398;28;20423;-69
2021/12/18 00:14:50;;;;;;;19.33;10.65;;;;;;;0.43;68.27;95108.63;5130490;28;20062;-69
2021/12/18 00:17:16;;;;;;;24.52;11.65;;;;;;;0.54;68.46;95115.06;5113703;28;20043;-69
2021/12/18 00:19:42;;;;;;;17.75;10.35;;;;;;;0.49;69.49;95127.19;5130435;28;20027;-69
2021/12/18 00:22:07;;;;;;;18.25;10.10;;;;;;;0.54;69.18;95120.19;5131806;27;20038;-69
2021/12/18 00:24:33;;;;;;;18.73;9.75;;;;;;;0.60;69.54;95117.38;5113335;28;20039;-69
2021/12/18 00:26:58;;;;;;;18.85;10.43;;;;;;;0.66;69.09;95125.63;5130472;28;20031;-69
2021/12/18 00:29:24;;;;;;;17.48;10.20;;;;;;;0.62;68.77;95118.97;5130510;28;20408;-69
2021/12/18 00:31:51;;;;;;;20.00;11.27;;;;;;;0.62;69.57;95123.28;5131729;27;20031;-69
2021/12/18 00:34:16;;;;;;;28.25;12.82;;;;;;;0.59;68.84;95134.44;5113586;28;20061;-69
2021/12/18 00:36:42;;;;;;;22.25;12.23;;;;;;;0.63;69.50;95130.03;5113342;28;20035;-69
2021/12/18 00:39:07;;;;;;;19.92;11.20;;;;;;;0.56;69.50;95131.19;5130372;28;20027;-69
2021/12/18 00:44:02;;;;;;;22.95;11.43;;;;;;;0.65;68.79;95126.53;5131815;27;20023;-69
2021/12/18 00:46:37;;;;;;;22.10;11.65;;;;;;;0.64;68.97;95126.56;5113607;28;20031;-69
2021/12/18 00:49:04;;;;;;;19.75;12.57;;;;;;;0.39;69.53;95126.69;5130457;28;20034;-69
2021/12/18 00:51:29;;;;;;;31.75;16.30;;;;;;;0.61;69.79;95131.81;5113067;28;20035;-70
2021/12/18 00:53:55;;;;;;;25.95;13.57;;;;;;;0.62;69.16;95130.94;5113079;28;20022;-69
2021/12/18 00:56:21;;;;;;;23.77;12.85;;;;;;;0.63;68.80;95128.31;5130171;28;20042;-69
2021/12/18 00:58:49;;;;;;;23.08;13.18;;;;;;;0.64;69.66;95119.75;5130136;28;20027;-69
2021/12/18 01:01:14;;;;;;;22.35;12.25;;;;;;;0.59;69.82;95113.16;5130166;28;20042;-69
2021/12/18 01:03:41;;;;;;;22.58;11.68;;;;;;;0.73;69.18;95116.00;5131391;27;20032;-69
2021/12/18 01:06:06;;;;;;;19.58;10.82;;;;;;;0.69;68.56;95124.69;5130092;28;20039;-69
2021/12/18 01:08:31;;;;;;;19.75;11.10;;;;;;;0.68;69.55;95123.03;5115507;27;20042;-69
2021/12/18 01:16:36;;;;;;;27.20;13.10;;;;;;;0.57;69.22;95113.22;5108965;27;20054;-69
2021/12/18 01:24:30;;;;;;;21.67;11.68;;;;;;;0.56;69.65;95128.63;5133619;27;20046;-69
2021/12/18 01:26:55;;;;;;;23.58;12.27;;;;;;;0.52;69.23;95124.50;5116523;27;20035;-70
2021/12/18 01:29:20;;;;;;;24.20;12.98;;;;;;;0.44;69.29;95119.69;5134964;27;20031;-69
2021/12/18 01:31:46;;;;;;;31.55;13.57;;;;;;;0.30;69.38;95121.94;5133430;27;20015;-69
2021/12/18 01:34:11;;;;;;;25.48;14.02;;;;;;;0.35;69.38;95120.03;5133459;27;20039;-69
2021/12/18 01:36:37;;;;;;;24.40;12.40;;;;;;;0.46;67.75;95117.09;5134661;27;20026;-69
2021/12/18 01:39:03;;;;;;;19.27;11.48;;;;;;;0.48;68.07;95110.19;5134445;27;20027;-70
2021/12/18 01:41:36;;;;;;;19.30;10.35;;;;;;;0.38;68.89;95110.53;5133332;27;20027;-69
2021/12/18 01:44:37;;;;;;;19.40;11.40;;;;;;;0.39;69.21;95111.34;5134679;27;20058;-69
2021/12/18 01:51:11;;;;;;;18.05;10.68;;;;;;;0.31;68.71;95096.34;5117769;27;20031;-69
2021/12/18 01:52:32;;;;;;;16.20;10.13;;;;;;;0.39;69.12;95108.78;5134358;27;20021;-69
2021/12/18 01:54:57;;;;;;;19.20;10.57;;;;;;;0.43;67.98;95103.53;5133307;27;20064;-70
2021/12/18 01:57:23;;;;;;;19.05;10.30;;;;;;;0.48;68.00;95110.19;5115823;27;20027;-69
2021/12/18 01:59:48;;;;;;;19.30;11.57;;;;;;;0.51;67.38;95112.63;5115855;27;20092;-69
2021/12/18 02:02:14;;;;;;;18.27;11.02;;;;;;;0.45;68.48;95100.91;5132925;27;20508;-69
2021/12/18 02:04:40;;;;;;;15.85;9.30;;;;;;;0.49;67.51;95104.19;5132866;27;20035;-69
2021/12/18 02:07:07;;;;;;;18.65;10.02;;;;;;;0.39;67.75;95112.22;5115850;27;20072;-69
2021/12/18 02:10:21;;;;;;;16.30;9.65;;;;;;;0.31;68.43;95098.88;5115916;27;20034;-69
2021/12/18 02:12:19;;;;;;;17.00;9.20;;;;;;;0.26;68.12;95107.63;5111192;27;20082;-69
2021/12/18 02:20:37;;;;;;;19.42;10.23;;;;;;;0.15;68.95;95110.56;5118206;27;20058;-69
2021/12/18 02:23:03;;;;;;;17.85;9.68;;;;;;;0.27;68.69;95111.84;5132787;27;20028;-69
2021/12/18 02:25:31;;;;;;;19.75;9.60;;;;;;;0.28;69.30;95110.94;5098265;27;20035;-69
2021/12/18 02:27:56;;;;;;;17.52;9.82;;;;;;;0.21;69.86;95107.78;5115583;27;20027;-69
2021/12/18 02:30:22;;;;;;;22.65;9.85;;;;;;;0.26;68.73;95105.91;5132306;27;20027;-69
2021/12/18 02:32:48;;;;;;;17.05;10.07;;;;;;;0.26;69.40;95107.63;5115107;27;20026;-69
2021/12/18 02:35:32;;;;;;;18.50;10.23;;;;;;;0.24;69.23;95107.66;5115481;27;20130;-69
2021/12/18 02:38:12;;;;;;;12.68;8.30;;;;;;;0.30;68.96;95102.31;5132382;27;20457;-69
2021/12/18 02:43:24;;;;;;;19.45;10.35;;;;;;;0.41;69.25;95101.91;5132568;27;20123;-69
2021/12/18 02:45:53;;;;;;;19.13;10.15;;;;;;;0.37;69.05;95101.19;5133211;27;20031;-69
2021/12/18 02:48:18;;;;;;;17.77;10.10;;;;;;;0.33;68.60;95091.16;5098852;27;20034;-68
2021/12/18 02:50:44;;;;;;;18.30;10.05;;;;;;;0.35;68.98;95094.47;5114814;27;20027;-68
2021/12/18 02:53:09;;;;;;;19.55;10.45;;;;;;;0.41;69.01;95099.34;5131834;27;20484;-69
2021/12/18 02:55:35;;;;;;;17.15;9.95;;;;;;;0.39;68.72;95096.00;5131767;27;20523;-68
2021/12/18 02:58:00;;;;;;;19.77;10.82;;;;;;;0.46;68.47;95114.53;5133005;27;20068;-69
2021/12/18 03:00:27;;;;;;;16.88;9.48;;;;;;;0.41;67.96;95114.69;5132008;27;20158;-69
2021/12/18 03:02:53;;;;;;;19.45;10.07;;;;;;;0.33;68.18;95098.81;5131809;27;20159;-69
2021/12/18 03:05:25;;;;;;;24.08;11.57;;;;;;;0.29;68.55;95118.56;5132615;27;20031;-69
2021/12/18 03:07:58;;;;;;;16.90;11.05;;;;;;;0.12;69.24;95108.13;5131595;27;20109;-69
2021/12/18 03:19:52;;;;;;;16.70;9.88;;;;;;;0.05;70.39;95122.84;5131729;27;20099;-69
2021/12/18 03:24:31;;;;;;;19.80;10.70;;;;;;;0.19;69.75;95125.72;5132629;27;20038;-69
2021/12/18 03:26:57;;;;;;;15.57;9.93;;;;;;;-0.01;71.70;95128.19;5131446;27;20408;-69
2021/12/18 03:29:22;;;;;;;16.95;10.63;;;;;;;-0.09;72.60;95132.75;5114063;27;20031;-68
2021/12/18 03:31:48;;;;;;;15.48;9.20;;;;;;;-0.02;71.88;95127.34;5130946;27;20023;-68
2021/12/18 03:34:13;;;;;;;16.65;9.70;;;;;;;-0.05;72.05;95130.03;5132514;27;20043;-69
2021/12/18 03:36:38;;;;;;;23.13;10.43;;;;;;;-0.04;72.00;95143.63;5113990;27;20495;-68
2021/12/18 03:39:04;;;;;;;20.40;10.52;;;;;;;-0.01;72.31;95136.69;5130897;27;20031;-69
2021/12/18 03:41:29;;;;;;;20.27;10.73;;;;;;;0.07;72.18;95145.78;5131074;27;20115;-68
2021/12/18 03:43:55;;;;;;;18.33;10.55;;;;;;;-0.06;72.63;95140.28;5113867;27;20035;-69
2021/12/18 03:46:21;;;;;;;19.67;11.23;;;;;;;-0.02;73.07;95145.25;5113814;27;20557;-69
2021/12/18 03:48:46;;;;;;;18.25;11.48;;;;;;;-0.04;73.05;95149.56;5113710;27;20031;-68
2021/12/18 03:51:11;;;;;;;19.65;11.52;;;;;;;-0.06;72.84;95143.66;5130883;27;20440;-68
2021/12/18 03:53:37;;;;;;;17.50;10.40;;;;;;;0.02;72.86;95148.50;5113611;27;20519;-68
2021/12/18 03:56:03;;;;;;;21.75;12.10;;;;;;;-0.02;73.04;95152.91;5130887;27;20034;-69
2021/12/18 03:58:29;;;;;;;19.42;11.88;;;;;;;-0.09;72.64;95146.34;5130682;27;20023;-69
2021/12/18 04:00:55;;;;;;;21.27;12.50;;;;;;;-0.09;72.58;95146.34;5130783;27;20027;-69
2021/12/18 04:03:20;;;;;;;21.05;12.57;;;;;;;-0.10;73.18;95159.19;5113462;28;20063;-69
2021/12/18 04:05:45;;;;;;;20.45;11.02;;;;;;;-0.20;73.24;95156.09;5130697;27;20076;-68
2021/12/18 04:08:11;;;;;;;22.42;11.23;;;;;;;-0.13;72.70;95159.28;5131848;27;20412;-69
2021/12/18 04:10:38;;;;;;;19.33;11.98;;;;;;;-0.14;72.93;95163.56;5130529;27;20037;-68
2021/12/18 04:13:04;;;;;;;26.23;15.00;;;;;;;-0.36;74.08;95167.72;5113594;28;20051;-69
2021/12/18 04:15:29;;;;;;;22.98;11.60;;;;;;;-0.22;74.16;95165.56;5113507;28;20051;-69
2021/12/18 04:17:55;;;;;;;28.77;17.67;;;;;;;-0.44;74.72;95146.78;5130614;28;20034;-70
2021/12/18 04:20:20;;;;;;;26.23;19.25;;;;;;;-0.31;74.17;95165.84;5131639;27;20035;-69
2021/12/18 04:22:46;;;;;;;18.80;12.88;;;;;;;-0.25;73.96;95163.13;5131770;27;20080;-69
2021/12/18 04:25:11;;;;;;;18.45;11.57;;;;;;;-0.21;73.87;95164.66;5132030;27;20397;-68
2021/12/18 04:27:37;;;;;;;19.45;10.93;;;;;;;-0.21;74.13;95161.28;5130399;27;20515;-68
2021/12/18 04:30:03;;;;;;;20.98;12.80;;;;;;;-0.10;73.36;95165.09;5113466;28;20031;-68
2021/12/18 04:32:28;;;;;;;25.63;13.70;;;;;;;-0.19;73.33;95165.44;5113375;28;20042;-69
2021/12/18 04:34:54;;;;;;;23.58;13.73;;;;;;;-0.18;73.41;95159.44;5113479;28;20035;-69
2021/12/18 04:37:20;;;;;;;21.25;12.60;;;;;;;-0.16;73.92;95162.78;5096250;28;20023;-68
2021/12/18 04:39:46;;;;;;;20.17;12.30;;;;;;;-0.13;74.22;95167.78;5130499;28;20039;-69
2021/12/18 04:42:11;;;;;;;19.00;11.68;;;;;;;-0.11;73.55;95181.34;5132536;27;20072;-69
2021/12/18 04:44:37;;;;;;;19.17;10.57;;;;;;;-0.40;74.21;95171.28;5135857;27;20035;-69
2021/12/18 04:47:02;;;;;;;27.00;18.20;;;;;;;-0.31;73.77;95170.97;5100343;27;20023;-68
2021/12/18 04:49:28;;;;;;;20.33;11.52;;;;;;;-0.48;74.49;95176.66;5134381;27;20032;-69
2021/12/18 04:51:54;;;;;;;19.33;12.30;;;;;;;-0.50;73.89;95160.56;5135660;27;20388;-69
2021/12/18 04:54:20;;;;;;;17.00;11.25;;;;;;;-0.69;73.52;95190.97;5134238;27;20114;-68
2021/12/18 04:56:45;;;;;;;18.15;10.52;;;;;;;-0.66;74.41;95195.97;5135416;27;20030;-69
2021/12/18 04:59:11;;;;;;;18.90;10.60;;;;;;;-0.62;74.06;95186.50;5134164;27;20084;-68
2021/12/18 05:01:39;;;;;;;19.92;11.23;;;;;;;-0.49;73.78;95195.41;5117105;27;20084;-69
2021/12/18 05:04:08;;;;;;;17.73;10.95;;;;;;;-0.41;73.55;95190.06;5134096;27;20035;-68
2021/12/18 05:06:36;;;;;;;16.88;9.90;;;;;;;-0.42;72.21;95193.47;5133916;27;20030;-69
2021/12/18 05:09:02;;;;;;;19.13;10.55;;;;;;;-0.36;73.36;95201.78;5134012;27;20172;-69
2021/12/18 05:11:27;;;;;;;16.90;9.10;;;;;;;-0.31;72.85;95196.50;5116609;27;20105;-70
2021/12/18 05:13:52;;;;;;;13.48;8.35;;;;;;;-0.28;71.89;95212.56;5133626;27;20058;-70
2021/12/18 05:16:18;;;;;;;13.70;7.93;;;;;;;-0.29;72.29;95210.88;5135139;27;20446;-69
2021/12/18 05:18:43;;;;;;;15.90;9.15;;;;;;;-0.25;71.63;95216.75;5135055;27;20057;-69
2021/12/18 05:21:10;;;;;;;15.98;8.80;;;;;;;-0.22;71.57;95219.19;5134949;27;20081;-69
2021/12/18 05:23:35;;;;;;;17.45;8.40;;;;;;;-0.24;71.56;95215.84;5133719;27;20031;-69
2021/12/18 05:26:01;;;;;;;15.88;8.20;;;;;;;-0.18;70.62;95232.66;5099399;27;20485;-69
2021/12/18 05:28:26;;;;;;;14.68;8.05;;;;;;;-0.29;71.33;95217.72;5133494;27;20034;-69
2021/12/18 05:30:52;;;;;;;13.45;8.13;;;;;;;-0.30;71.26;95221.16;5134823;27;20038;-69
2021/12/18 05:33:17;;;;;;;17.15;8.73;;;;;;;-0.38;71.35;95205.25;5116558;27;20038;-69
2021/12/18 05:35:42;;;;;;;21.08;9.43;;;;;;;-0.26;70.84;95215.06;5134721;27;20512;-69
2021/12/18 05:38:08;;;;;;;15.18;8.15;;;;;;;-0.19;70.88;95231.00;5116234;27;20031;-69
2021/12/18 05:40:34;;;;;;;16.10;8.55;;;;;;;-0.30;71.24;95216.06;5133294;27;20038;-69
2021/12/18 05:43:00;;;;;;;13.30;8.23;;;;;;;-0.20;70.79;95237.81;5134455;27;20031;-70
2021/12/18 05:45:25;;;;;;;13.57;8.18;;;;;;;-0.20;71.30;95237.00;5133067;27;20027;-70
2021/12/18 05:47:51;;;;;;;13.82;7.70;;;;;;;-0.19;71.58;95238.69;5134510;27;20027;-70
2021/12/18 05:50:17;;;;;;;14.57;8.05;;;;;;;-0.30;72.02;95236.47;5134250;27;20402;-69
2021/12/18 05:52:45;;;;;;;12.75;8.13;;;;;;;-0.30;71.93;95229.66;5115678;27;20039;-70
2021/12/18 05:55:10;;;;;;;13.27;8.15;;;;;;;-0.17;71.47;95240.25;5099000;27;20031;-70
2021/12/18 05:57:35;;;;;;;19.70;9.93;;;;;;;-0.24;71.48;95238.81;5134306;27;20019;-69
2021/12/18 06:00:01;;;;;;;16.50;10.52;;;;;;;-0.29;70.93;95230.47;5133120;27;20035;-70
2021/12/18 06:02:26;;;;;;;15.30;10.60;;;;;;;-0.24;71.74;95243.94;5115848;27;20023;-70
2021/12/18 06:04:52;;;;;;;15.45;8.30;;;;;;;-0.26;71.28;95246.53;5132844;27;20095;-69
2021/12/18 06:07:29;;;;;;;14.95;8.85;;;;;;;-0.28;71.37;95237.25;5134108;27;20386;-70
2021/12/18 06:09:55;;;;;;;14.68;9.95;;;;;;;-0.20;71.69;95253.13;5133116;27;20023;-70
2021/12/18 06:12:20;;;;;;;19.33;12.10;;;;;;;-0.22;70.71;95237.06;5132769;27;20031;-70
2021/12/18 06:14:46;;;;;;;23.17;15.73;;;;;;;-0.19;71.54;95262.50;5115439;27;20059;-70
2021/12/18 06:17:11;;;;;;;15.25;9.65;;;;;;;-0.15;71.07;95245.34;5132667;27;20053;-70
2021/12/18 06:19:37;;;;;;;30.10;18.42;;;;;;;-0.21;71.17;95268.53;5132643;27;20027;-70
2021/12/18 06:22:02;;;;;;;27.73;17.98;;;;;;;-0.11;70.92;95275.84;5133831;27;20019;-70
2021/12/18 06:24:28;;;;;;;31.30;20.13;;;;;;;-0.15;71.43;95279.38;5132301;27;20043;-70
2021/12/18 06:26:55;;;;;;;21.48;13.48;;;;;;;-0.06;71.30;95294.38;5115334;27;20035;-71
2021/12/18 06:29:21;;;;;;;16.30;9.27;;;;;;;-0.16;71.98;95282.81;5132393;27;20083;-70
2021/12/18 06:31:46;;;;;;;17.10;8.98;;;;;;;-0.06;72.21;95286.72;5132383;27;20034;-70
2021/12/18 06:34:12;;;;;;;17.77;10.38;;;;;;;-0.09;73.50;95296.19;5132314;27;20031;-69
2021/12/18 06:36:38;;;;;;;21.55;13.48;;;;;;;-0.27;74.82;95295.94;5132698;27;20027;-70
2021/12/18 06:39:04;;;;;;;17.27;11.50;;;;;;;-0.15;74.93;95299.78;5115171;27;20408;-69
2021/12/18 06:41:29;;;;;;;22.90;13.38;;;;;;;-0.16;75.04;95299.88;5132116;27;20087;-69
2021/12/18 06:43:54;;;;;;;21.73;11.68;;;;;;;-0.13;75.11;95309.97;5133485;27;20035;-69
2021/12/18 06:46:20;;;;;;;25.70;12.95;;;;;;;-0.24;75.68;95300.09;5132077;27;20527;-69
2021/12/18 06:48:45;;;;;;;17.77;10.35;;;;;;;-0.21;75.06;95310.22;5131951;27;20031;-69
2021/12/18 06:51:11;;;;;;;19.45;10.38;;;;;;;-0.15;74.48;95304.91;5131985;27;20031;-69
2021/12/18 06:53:36;;;;;;;34.50;16.10;;;;;;;-0.22;75.07;95303.47;5133233;27;20035;-69
2021/12/18 06:56:03;;;;;;;27.83;13.43;;;;;;;-0.23;75.38;95310.25;5133270;27;20326;-69
2021/12/18 06:58:29;;;;;;;21.50;11.88;;;;;;;-0.22;74.82;95303.47;5114933;27;20031;-69
2021/12/18 07:00:55;;;;;;;26.33;12.90;;;;;;;-0.18;74.71;95310.13;5131813;27;20535;-71
2021/12/18 07:03:21;;;;;;;23.88;13.10;;;;;;;-0.31;75.29;95288.41;5114634;27;20034;-69
2021/12/18 07:05:47;;;;;;;23.92;12.32;;;;;;;-0.26;75.05;95312.09;5131960;27;20062;-70
2021/12/18 07:08:13;;;;;;;21.17;12.00;;;;;;;-0.22;74.53;95323.88;5131639;27;20038;-70
2021/12/18 07:10:38;;;;;;;24.35;14.27;;;;;;;-0.23;75.38;95324.75;5114457;27;20481;-71
2021/12/18 07:13:03;;;;;;;25.08;13.75;;;;;;;-0.21;75.25;95335.75;5131546;27;20023;-71
2021/12/18 07:15:29;;;;;;;22.55;12.55;;;;;;;-0.24;74.67;95333.31;5132818;27;20042;-71
2021/12/18 07:17:54;;;;;;;23.90;11.85;;;;;;;-0.22;75.00;95339.22;5114378;27;20026;-71
2021/12/18 07:20:20;;;;;;;19.75;11.95;;;;;;;-0.16;74.77;95335.63;5131496;27;20035;-69
2021/12/18 07:22:45;;;;;;;25.70;15.93;;;;;;;-0.16;75.20;95339.00;5114245;27;20530;-69
2021/12/18 07:25:11;;;;;;;33.08;16.50;;;;;;;-0.17;74.43;95332.19;5131378;27;20035;-70
2021/12/18 07:27:36;;;;;;;23.95;14.20;;;;;;;-0.13;74.75;95344.00;5114226;27;20083;-69
2021/12/18 07:30:03;;;;;;;16.90;9.93;;;;;;;-0.25;74.46;95322.25;5114272;27;20039;-69
2021/12/18 07:32:29;;;;;;;17.85;10.50;;;;;;;-0.07;74.27;95338.69;5131086;27;20046;-69
2021/12/18 07:34:55;;;;;;;21.35;11.88;;;;;;;0.06;74.21;95353.63;5131373;27;20343;-69
2021/12/18 07:37:22;;;;;;;21.15;12.57;;;;;;;0.06;74.08;95358.75;5131078;27;20023;-69
2021/12/18 07:39:48;;;;;;;21.85;12.00;;;;;;;0.02;74.31;95344.38;5114435;27;20046;-70
2021/12/18 07:42:13;;;;;;;16.80;10.45;;;;;;;0.05;74.05;95351.94;5114032;27;20035;-69
2021/12/18 07:44:40;;;;;;;47.55;24.15;;;;;;;0.10;73.89;95345.78;5132445;27;20050;-70
2021/12/18 07:47:05;;;;;;;26.50;16.73;;;;;;;0.18;74.07;95354.03;5130945;27;20449;-70
2021/12/18 07:49:31;;;;;;;19.65;11.30;;;;;;;0.22;73.03;95354.75;5130911;27;20023;-70
2021/12/18 07:52:01;;;;;;;30.40;16.70;;;;;;;0.28;72.52;95362.25;5132146;27;20019;-69
2021/12/18 07:54:27;;;;;;;33.40;20.35;;;;;;;0.24;72.54;95355.56;5132293;27;20109;-70
2021/12/18 07:56:53;;;;;;;35.53;21.15;;;;;;;0.22;72.51;95364.97;5113784;27;20488;-70
2021/12/18 07:59:18;;;;;;;25.45;15.82;;;;;;;0.27;72.25;95373.34;5130854;27;20042;-70
2021/12/18 08:01:44;;;;;;;20.15;11.93;;;;;;;0.21;71.86;95371.00;5132025;27;20042;-70
2021/12/18 08:04:09;;;;;;;62.75;39.53;;;;;;;0.37;71.42;95379.81;5131817;27;20031;-69
2021/12/18 08:06:34;;;;;;;34.67;19.67;;;;;;;0.34;71.28;95379.91;5130635;27;20545;-70
2021/12/18 08:09:00;;;;;;;29.88;14.75;;;;;;;0.29;71.29;95384.34;5132153;27;20027;-70
2021/12/18 08:11:25;;;;;;;17.88;9.88;;;;;;;0.27;70.84;95401.44;5130605;27;20016;-69
2021/12/18 08:13:51;;;;;;;18.95;13.02;;;;;;;0.34;70.37;95395.25;5130381;27;20081;-69
2021/12/18 08:16:16;;;;;;;22.77;15.27;;;;;;;0.38;69.72;95396.81;5131566;27;20416;-70
2021/12/18 08:18:42;;;;;;;12.27;8.25;;;;;;;0.50;69.37;95399.84;5131634;27;20409;-70
2021/12/18 08:21:07;;;;;;;29.90;16.45;;;;;;;0.48;70.22;95396.53;5130591;28;20019;-69
2021/12/18 08:23:32;;;;;;;25.55;18.90;;;;;;;0.60;68.86;95396.09;5113316;28;20047;-69
2021/12/18 08:25:58;;;;;;;29.98;20.25;;;;;;;0.65;69.65;95399.31;5130483;28;20019;-70
2021/12/18 08:28:23;;;;;;;21.95;17.40;;;;;;;0.56;69.49;95399.66;5130398;28;20519;-70
2021/12/18 08:30:49;;;;;;;18.35;13.43;;;;;;;0.60;70.13;95385.84;5131747;27;20023;-69
2021/12/18 08:33:14;;;;;;;17.00;9.63;;;;;;;0.58;69.21;95408.09;5131618;27;20493;-69
2021/12/18 08:35:40;;;;;;;18.67;9.82;;;;;;;0.55;69.63;95409.00;5113316;28;20385;-69
2021/12/18 08:38:05;;;;;;;17.00;9.65;;;;;;;0.56;69.21;95404.75;5130370;28;20446;-69
2021/12/18 08:40:31;;;;;;;16.17;9.88;;;;;;;0.53;69.38;95404.84;5096264;28;20303;-69
2021/12/18 08:42:57;;;;;;;19.98;11.02;;;;;;;0.55;68.75;95414.13;5130325;28;20023;-70
2021/12/18 08:45:22;;;;;;;27.80;14.40;;;;;;;0.62;69.00;95404.53;5130156;28;20038;-69
2021/12/18 08:47:47;;;;;;;30.67;15.57;;;;;;;0.71;68.87;95411.06;5131593;27;20027;-69
2021/12/18 08:50:17;;;;;;;26.45;16.90;;;;;;;0.72;69.51;95413.56;5113210;28;20043;-70
2021/12/18 08:52:43;;;;;;;38.38;20.40;;;;;;;0.77;68.70;95410.84;5130296;28;20058;-69
2021/12/18 08:55:08;;;;;;;32.90;20.52;;;;;;;0.79;68.93;95396.28;5130381;28;20478;-70
2021/12/18 08:57:34;;;;;;;29.10;18.05;;;;;;;0.86;68.11;95393.47;5130193;27;20031;-71
2021/12/18 08:59:59;;;;;;;29.55;17.17;;;;;;;0.83;68.33;95398.66;5130292;28;20071;-70
2021/12/18 09:02:25;;;;;;;22.17;13.25;;;;;;;0.74;68.05;95387.94;5131443;27;20027;-70
2021/12/18 09:04:50;;;;;;;50.58;31.10;;;;;;;0.72;68.55;95393.09;5113048;28;20032;-70
2021/12/18 09:07:16;;;;;;;41.40;27.70;;;;;;;0.82;68.40;95397.00;5131339;27;20076;-69
2021/12/18 09:09:41;;;;;;;26.98;14.48;;;;;;;0.82;67.27;95394.44;5131591;27;20031;-69
2021/12/18 09:12:08;;;;;;;74.80;29.20;;;;;;;0.84;68.29;95395.22;5131355;27;20044;-69
2021/12/18 09:14:33;;;;;;;58.88;24.42;;;;;;;0.86;67.04;95397.72;5129802;28;20063;-68
2021/12/18 09:16:59;;;;;;;50.33;24.38;;;;;;;0.90;67.61;95396.75;5131364;27;20016;-68
2021/12/18 09:19:24;;;;;;;179.10;67.22;;;;;;;0.84;67.68;95379.88;5112788;28;20027;-68
2021/12/18 09:21:50;;;;;;;181.25;64.03;;;;;;;0.96;66.50;95385.44;5131256;27;20030;-68
2021/12/18 09:24:15;;;;;;;104.18;53.40;;;;;;;1.02;66.98;95388.59;5131311;27;20050;-69
2021/12/18 09:26:40;;;;;;;52.42;34.05;;;;;;;0.95;66.65;95370.97;5112937;28;20019;-69
2021/12/18 09:29:06;;;;;;;24.98;15.90;;;;;;;1.02;65.68;95383.50;5131749;27;20069;-69
2021/12/18 09:31:31;;;;;;;21.75;12.73;;;;;;;1.12;66.90;95386.56;5133620;27;20031;-69
2021/12/18 09:33:57;;;;;;;21.83;14.13;;;;;;;1.18;65.76;95390.63;5116351;27;20080;-69
2021/12/18 09:36:22;;;;;;;24.40;15.30;;;;;;;1.15;66.10;95391.56;5116431;27;20240;-69
2021/12/18 09:38:48;;;;;;;21.67;15.23;;;;;;;1.20;65.92;95387.13;5133465;27;20072;-69
2021/12/18 09:41:13;;;;;;;24.35;15.68;;;;;;;1.32;66.01;95391.75;5133406;27;20039;-69
2021/12/18 09:43:38;;;;;;;23.08;16.42;;;;;;;1.43;65.73;95385.41;5116027;27;20404;-70
2021/12/18 09:46:12;;;;;;;24.98;17.15;;;;;;;1.39;66.02;95381.28;5133282;27;20393;-69
2021/12/18 09:48:39;;;;;;;28.08;18.77;;;;;;;1.55;66.47;95378.09;5134412;27;20083;-70
2021/12/18 09:51:08;;;;;;;25.98;18.73;;;;;;;1.65;66.80;95370.88;5116196;27;20069;-69
2021/12/18 09:53:34;;;;;;;32.58;20.52;;;;;;;1.53;66.74;95372.22;5116447;27;20036;-70
2021/12/18 09:56:00;;;;;;;27.30;16.55;;;;;;;1.59;66.04;95373.69;5133122;27;20049;-70
2021/12/18 09:58:25;;;;;;;31.08;20.20;;;;;;;1.66;66.30;95376.84;5115805;27;20481;-70
2021/12/18 10:00:51;;;;;;;20.40;13.05;;;;;;;1.64;65.74;95361.53;5132981;27;20038;-70
2021/12/18 10:03:16;;;;;;;29.92;18.42;;;;;;;1.69;65.81;95364.75;5132869;27;20066;-71
2021/12/18 10:05:42;;;;;;;35.53;21.95;;;;;;;1.75;66.06;95358.53;5115580;27;20027;-70
2021/12/18 10:08:10;;;;;;;32.40;18.85;;;;;;;1.66;65.41;95339.25;5115732;27;20035;-70
2021/12/18 10:10:35;;;;;;;25.85;15.32;;;;;;;1.88;65.66;95364.84;5132735;27;20083;-69
2021/12/18 10:13:06;;;;;;;27.65;18.55;;;;;;;1.84;66.08;95350.50;5132714;27;20027;-70
2021/12/18 10:15:31;;;;;;;16.05;9.98;;;;;;;1.87;63.18;95352.13;5115775;27;20050;-69
2021/12/18 10:18:08;;;;;;;15.98;9.95;;;;;;;1.82;62.79;95354.84;5132610;27;20027;-69
2021/12/18 10:20:33;;;;;;;14.63;9.73;;;;;;;1.88;61.52;95354.59;5115583;27;20051;-69
2021/12/18 10:23:02;;;;;;;24.50;12.88;;;;;;;1.81;63.39;95358.28;5115566;27;20023;-69
2021/12/18 10:25:40;;;;;;;18.83;12.10;;;;;;;1.52;65.18;95359.44;5098898;27;20382;-70
2021/12/18 10:28:19;;;;;;;19.58;11.63;;;;;;;1.53;64.50;95361.09;5132466;27;20030;-70
2021/12/18 10:30:49;;;;;;;18.00;11.23;;;;;;;1.35;66.02;95360.09;5116896;27;20111;-70
2021/12/18 10:33:14;;;;;;;21.33;14.75;;;;;;;1.44;65.81;95374.28;5115236;27;20067;-70
2021/12/18 10:35:40;;;;;;;25.55;16.30;;;;;;;1.39;66.46;95366.75;5132255;27;20389;-69
2021/12/18 10:38:05;;;;;;;24.45;15.48;;;;;;;1.40;65.79;95357.38;5133507;27;20030;-70
2021/12/18 10:40:46;;;;;;;28.58;17.60;;;;;;;1.69;66.25;95359.63;5097806;27;20027;-70
2021/12/18 10:43:13;;;;;;;24.75;14.80;;;;;;;1.91;66.29;95361.34;5097981;27;20083;-70
2021/12/18 10:45:39;;;;;;;61.10;34.40;;;;;;;1.74;67.78;95355.16;5114924;27;20062;-70
2021/12/18 10:48:06;;;;;;;32.78;18.50;;;;;;;1.83;67.50;95353.13;5114785;27;20507;-70
2021/12/18 10:50:45;;;;;;;18.42;11.60;;;;;;;1.82;66.71;95348.91;5115012;27;20042;-70
2021/12/18 10:53:11;;;;;;;20.45;11.32;;;;;;;1.92;66.44;95345.91;5133350;27;20408;-70
2021/12/18 10:55:44;;;;;;;20.73;14.15;;;;;;;1.93;66.78;95337.31;5131713;27;20024;-69
2021/12/18 10:58:30;;;;;;;27.90;16.70;;;;;;;2.12;65.48;95342.53;5131975;27;20027;-69
2021/12/18 11:01:02;;;;;;;35.47;19.80;;;;;;;2.15;66.62;95341.56;5131650;27;20477;-69
2021/12/18 11:03:28;;;;;;;47.83;25.67;;;;;;;1.89;64.97;95329.81;5131631;27;20503;-70
2021/12/18 11:06:20;;;;;;;19.52;12.95;;;;;;;1.94;62.98;95335.59;5131527;27;20026;-70
2021/12/18 11:09:00;;;;;;;22.23;12.55;;;;;;;1.94;63.45;95333.03;5131780;27;20408;-70
2021/12/18 11:14:03;;;;;;;19.55;10.90;;;;;;;1.93;62.68;95329.63;5131678;27;20054;-70
2021/12/18 11:16:28;;;;;;;21.58;13.23;;;;;;;1.99;63.42;95337.06;5114452;27;20078;-70
2021/12/18 11:18:54;;;;;;;19.38;11.40;;;;;;;2.04;63.36;95336.06;5114250;27;20046;-69
2021/12/18 11:21:19;;;;;;;17.90;11.15;;;;;;;2.00;62.92;95327.63;5114290;27;20050;-70
2021/12/18 11:24:09;;;;;;;18.27;11.45;;;;;;;1.93;62.83;95326.25;5114222;27;20032;-70
2021/12/18 11:26:41;;;;;;;26.20;15.32;;;;;;;1.97;64.06;95328.59;5132444;27;20035;-69
2021/12/18 11:29:19;;;;;;;34.47;18.88;;;;;;;2.01;63.06;95334.44;5114986;27;20057;-69
2021/12/18 11:31:45;;;;;;;26.25;13.23;;;;;;;1.84;61.91;95324.03;5131404;27;20020;-70
2021/12/18 11:34:10;;;;;;;11.93;7.63;;;;;;;1.95;60.35;95324.44;5131258;27;20027;-69
2021/12/18 11:36:38;;;;;;;20.60;12.68;;;;;;;1.96;61.41;95333.78;5131211;27;20504;-69
2021/12/18 11:39:04;;;;;;;23.23;13.48;;;;;;;1.93;62.16;95336.50;5131232;27;20503;-70
2021/12/18 11:41:29;;;;;;;18.52;9.40;;;;;;;1.78;61.90;95338.78;5113985;27;20027;-70
2021/12/18 11:43:55;;;;;;;14.45;8.48;;;;;;;1.81;62.12;95340.34;5131053;27;20444;-70
2021/12/18 11:46:33;;;;;;;9.07;5.90;;;;;;;1.77;61.27;95338.81;5132454;27;20027;-70
2021/12/18 11:49:09;;;;;;;12.75;7.95;;;;;;;1.74;61.84;95332.09;5130948;27;20042;-70
2021/12/18 11:51:36;;;;;;;13.30;7.55;;;;;;;1.43;61.42;95306.03;5130433;27;20393;-69
2021/12/18 11:54:03;;;;;;;15.65;10.23;;;;;;;1.63;60.46;95344.50;5113793;27;20027;-70
2021/12/18 11:56:47;;;;;;;13.70;8.30;;;;;;;1.51;60.39;95322.78;5130856;27;20019;-70
2021/12/18 11:59:13;;;;;;;13.35;7.53;;;;;;;1.62;60.43;95339.44;5132200;27;20026;-70
2021/12/18 12:01:45;;;;;;;14.38;9.50;;;;;;;1.66;61.03;95333.28;5113782;27;20042;-70